Capital City Airport
KLAN : now visible

Airfield :











YOU CAN JOIN US ON...

 
LOGIN :

Register | Disclaimer

   EN    FR    IT 

 









Legend :    VFR   Marginal VFR   IFR   Intensive IFR   Very Intensive IFR
Visi :
Ceiling :
>= 8 km
>= 3000ft
5 to 8 km
1000 to 3000 ft
1500m to 5 km
500 to 1000 ft
800 to 1500m
200 to 500 ft
< 800m
< 200 ft
Symbols :   Thunderstorms  Fog  Heavy snow  Heavy precipitations  Wind > 20 kt







- Airport Elevation : 861 ft
- IATA code : LAN


KLAN - Capital City

CURRENT METAR :
  • 210853Z 23005KT 4SM RA BR FEW065 BKN100 OVC120 22/21 A2994 RMK AO2 LTG DSNT SE-W RAB0754E04B13 SLP132 P0007 60007 T02170206 53004

EXPIRED METARs :
  • 210805Z 30003KT 10SM VCTS FEW016 OVC050 22/20 A2993 RMK AO2 LTG DSNT SW-NW RAB0754E04 P0000 T02220200
  • 210753Z 00000KT 10SM SCT014 OVC048 22/20 A2992 RMK AO2 LTG DSNT SW-NW SLP125 T02220200
  • 210653Z 04004KT 10SM OVC012 22/21 A2993 RMK AO2 SLP128 T02220206

TAF KLAN
Valid from the 21 at 09:00 until the 22 at 06:00 UTC


210854Z 2109/2206 30003KT P6SM VCSH BKN050
FM211200 01006KT P6SM BKN035
FM211600 07007KT P6SM SCT050
KZOB FIR / North America



MET'MAP, your aeronautical weather chart ! - Copyright ORBIFLY December 2007 - Disclaimer

ORBIFLY MET'MAP TEAM :

Programming & Development : Alexandra Zaïnal
Concept & Development : Baudouin d'Aumeries
Co-Development & Prog : Marc-Olivier Méhu
Technical & hardware support : Manuel Goepfert

Contact : metmap@orbifly.com




SOURCES & CREDITS :

   NOAA       Earth
Advisory